createdAt,value
2023-04-26T00:02:11.754Z,13.50
2023-04-26T00:04:40.144Z,16.00
2023-04-26T00:07:07.813Z,15.57
2023-04-26T00:09:35.424Z,16.65
2023-04-26T00:12:02.988Z,15.68
2023-04-26T00:14:30.626Z,16.38
2023-04-26T00:16:58.114Z,17.05
2023-04-26T00:19:25.632Z,15.80
2023-04-26T00:21:53.159Z,14.35
2023-04-26T00:24:21.186Z,16.58
2023-04-26T00:26:48.715Z,19.23
2023-04-26T00:29:16.274Z,16.73
2023-04-26T00:31:43.851Z,14.63
2023-04-26T00:34:11.420Z,12.98
2023-04-26T00:36:39.000Z,17.10
2023-04-26T00:39:06.617Z,20.13
2023-04-26T00:41:34.261Z,18.67
2023-04-26T00:44:01.932Z,16.20
2023-04-26T00:46:31.035Z,18.08
2023-04-26T00:48:58.822Z,19.48
2023-04-26T00:51:27.149Z,18.48
2023-04-26T00:53:55.088Z,20.20
2023-04-26T00:56:24.832Z,13.48
2023-04-26T00:58:53.129Z,18.05
2023-04-26T01:01:21.413Z,15.80
2023-04-26T01:03:49.221Z,16.30
2023-04-26T01:06:17.834Z,13.38
2023-04-26T01:08:45.565Z,15.65
2023-04-26T01:11:14.794Z,16.00
2023-04-26T01:13:42.605Z,16.08
2023-04-26T01:16:10.404Z,18.80
2023-04-26T01:18:37.925Z,18.63
2023-04-26T01:21:05.561Z,21.13
2023-04-26T01:23:33.188Z,17.00
2023-04-26T01:26:00.744Z,18.27
2023-04-26T01:28:28.231Z,20.83
2023-04-26T01:30:56.937Z,19.50
2023-04-26T01:33:24.542Z,22.33
2023-04-26T01:35:52.787Z,17.25
2023-04-26T01:38:20.772Z,19.63
2023-04-26T01:40:48.271Z,20.95
2023-04-26T01:43:18.310Z,21.45
2023-04-26T01:45:48.894Z,21.35
2023-04-26T01:48:31.589Z,20.25
2023-04-26T01:51:01.819Z,19.70
2023-04-26T01:53:29.395Z,20.88
2023-04-26T01:55:56.941Z,23.38
2023-04-26T01:58:24.501Z,18.55
2023-04-26T02:00:51.989Z,24.10
2023-04-26T02:03:19.642Z,26.52
2023-04-26T02:05:47.248Z,20.73
2023-04-26T02:08:14.808Z,20.63
2023-04-26T02:10:42.374Z,18.30
2023-04-26T02:13:09.859Z,19.92
2023-04-26T02:15:37.521Z,20.92
2023-04-26T02:18:05.761Z,20.50
2023-04-26T02:20:33.721Z,19.48
2023-04-26T02:23:01.281Z,18.85
2023-04-26T02:25:28.842Z,22.92
2023-04-26T02:27:56.378Z,20.35
2023-04-26T02:30:23.956Z,24.50
2023-04-26T02:32:54.800Z,22.60
2023-04-26T02:35:23.800Z,19.40
2023-04-26T02:37:54.748Z,22.02
2023-04-26T02:40:22.850Z,23.25
2023-04-26T02:42:50.406Z,20.80
2023-04-26T02:45:18.179Z,18.80
2023-04-26T02:47:45.768Z,21.80
2023-04-26T02:50:13.551Z,22.88
2023-04-26T02:52:41.448Z,21.23
2023-04-26T02:55:09.446Z,20.45
2023-04-26T02:57:37.001Z,23.40
2023-04-26T03:00:08.899Z,25.60
2023-04-26T03:02:36.818Z,24.02
2023-04-26T03:05:04.963Z,22.67
2023-04-26T03:07:33.034Z,21.65
2023-04-26T03:10:00.708Z,20.58
2023-04-26T03:12:29.872Z,24.27
2023-04-26T03:14:57.595Z,21.25
2023-04-26T03:17:26.463Z,20.83
2023-04-26T03:19:57.439Z,20.65
2023-04-26T03:22:25.066Z,23.80
2023-04-26T03:24:52.872Z,26.13
2023-04-26T03:27:20.537Z,22.73
2023-04-26T03:29:48.193Z,21.80
2023-04-26T03:32:16.209Z,19.60
2023-04-26T03:34:43.775Z,20.40
2023-04-26T03:37:11.357Z,23.40
2023-04-26T03:39:39.569Z,22.35
2023-04-26T03:42:07.246Z,23.63
2023-04-26T03:44:35.869Z,22.60
2023-04-26T03:47:05.206Z,24.75
2023-04-26T03:49:33.216Z,22.98
2023-04-26T03:52:01.134Z,24.05
2023-04-26T03:54:28.725Z,18.58
2023-04-26T03:56:59.236Z,23.10
2023-04-26T03:59:26.936Z,18.75
2023-04-26T04:01:54.464Z,22.40
2023-04-26T04:04:22.606Z,21.52
2023-04-26T04:06:50.820Z,19.15
2023-04-26T04:09:18.750Z,20.55
2023-04-26T04:11:47.535Z,18.23
2023-04-26T04:14:15.582Z,19.65
2023-04-26T04:16:43.213Z,19.42
2023-04-26T04:19:12.395Z,22.02
2023-04-26T04:21:42.757Z,25.30
2023-04-26T04:24:10.343Z,22.95
2023-04-26T04:26:37.914Z,19.70
2023-04-26T04:29:09.139Z,19.55
2023-04-26T04:31:40.055Z,20.77
2023-04-26T04:34:09.057Z,19.15
2023-04-26T04:36:38.977Z,19.45
2023-04-26T04:39:12.429Z,24.02
2023-04-26T04:41:47.506Z,23.45
2023-04-26T04:44:16.377Z,24.75
2023-04-26T04:46:44.968Z,21.70
2023-04-26T04:49:12.987Z,22.70
2023-04-26T04:51:40.959Z,21.77
2023-04-26T04:54:13.784Z,28.33
2023-04-26T04:56:42.683Z,21.25
2023-04-26T04:59:12.108Z,25.17
2023-04-26T05:01:40.405Z,29.67
2023-04-26T05:04:12.349Z,27.88
2023-04-26T05:06:39.982Z,26.73
2023-04-26T05:09:11.869Z,31.13
2023-04-26T05:11:39.824Z,21.75
2023-04-26T05:14:09.845Z,30.00
2023-04-26T05:16:38.417Z,24.95
2023-04-26T05:19:08.689Z,21.58
2023-04-26T05:21:37.522Z,30.55
2023-04-26T05:24:05.360Z,23.67
2023-04-26T05:26:35.764Z,29.80
2023-04-26T05:29:22.233Z,26.20
2023-04-26T05:32:18.801Z,21.65
2023-04-26T05:34:53.979Z,31.88
2023-04-26T05:37:21.518Z,30.23
2023-04-26T05:39:49.410Z,26.17
2023-04-26T05:42:18.234Z,25.15
2023-04-26T05:44:46.425Z,28.38
2023-04-26T05:47:14.441Z,25.50
2023-04-26T05:49:42.006Z,27.90
2023-04-26T05:52:09.629Z,25.25
2023-04-26T05:54:37.940Z,26.33
2023-04-26T05:57:06.199Z,23.80
2023-04-26T05:59:36.943Z,27.80
2023-04-26T06:02:05.364Z,24.58
2023-04-26T06:04:33.230Z,24.60
2023-04-26T06:07:08.207Z,22.67
2023-04-26T06:09:35.827Z,25.02
2023-04-26T06:12:04.396Z,25.92
2023-04-26T06:14:35.051Z,24.37
2023-04-26T06:17:07.477Z,31.02
2023-04-26T06:19:35.355Z,24.25
2023-04-26T06:22:02.951Z,27.25
2023-04-26T06:24:30.781Z,22.20
2023-04-26T06:26:59.930Z,23.48
2023-04-26T06:29:32.732Z,28.58
2023-04-26T06:32:00.393Z,22.35
2023-04-26T06:34:28.616Z,25.20
2023-04-26T06:36:56.205Z,24.48
2023-04-26T06:39:26.044Z,29.00
2023-04-26T06:41:53.695Z,24.40
2023-04-26T06:44:41.553Z,24.77
2023-04-26T06:47:10.391Z,26.10
2023-04-26T06:49:38.307Z,22.83
2023-04-26T06:52:08.234Z,23.08
2023-04-26T06:54:45.954Z,23.52
2023-04-26T06:57:21.590Z,21.80
2023-04-26T06:59:49.102Z,21.73
2023-04-26T07:02:16.747Z,23.08
2023-04-26T07:04:44.590Z,21.23
2023-04-26T07:07:13.628Z,22.38
2023-04-26T07:09:41.733Z,20.08
2023-04-26T07:12:12.035Z,20.85
2023-04-26T07:14:41.349Z,20.83
2023-04-26T07:17:10.309Z,18.83
2023-04-26T07:19:38.610Z,17.33
2023-04-26T07:22:06.215Z,17.63
2023-04-26T07:24:33.727Z,16.13
2023-04-26T07:27:02.034Z,15.18
2023-04-26T07:29:29.598Z,16.65
2023-04-26T07:31:58.858Z,13.95
2023-04-26T07:34:26.694Z,12.90
2023-04-26T07:36:54.422Z,15.52
2023-04-26T07:39:22.202Z,13.98
2023-04-26T07:41:50.047Z,16.85
2023-04-26T07:44:17.706Z,17.30
2023-04-26T07:46:45.994Z,18.65
2023-04-26T07:49:13.871Z,21.20
2023-04-26T07:51:44.560Z,16.63
2023-04-26T07:54:12.155Z,17.00
2023-04-26T07:56:39.820Z,13.95
2023-04-26T07:59:07.581Z,18.48
2023-04-26T08:01:35.157Z,17.55
2023-04-26T08:04:03.024Z,10.75
2023-04-26T08:06:31.389Z,10.25
2023-04-26T08:08:58.945Z,11.35
2023-04-26T08:11:26.661Z,10.15
2023-04-26T08:13:54.492Z,9.98
2023-04-26T08:16:22.305Z,9.93
2023-04-26T08:18:49.825Z,11.35
2023-04-26T08:21:17.375Z,12.57
2023-04-26T08:23:45.405Z,9.65
2023-04-26T08:26:13.029Z,8.25
2023-04-26T08:28:41.070Z,12.35
2023-04-26T08:31:10.190Z,10.50
2023-04-26T08:33:37.895Z,8.40
2023-04-26T08:36:06.081Z,7.93
2023-04-26T08:38:33.895Z,10.90
2023-04-26T08:41:04.005Z,9.88
2023-04-26T08:43:35.828Z,7.72
2023-04-26T08:46:10.938Z,6.75
2023-04-26T08:48:38.643Z,8.10
2023-04-26T08:51:09.169Z,6.95
2023-04-26T08:53:38.447Z,6.30
2023-04-26T08:56:10.742Z,8.38
2023-04-26T08:58:38.881Z,7.43
2023-04-26T09:01:08.245Z,8.00
2023-04-26T09:03:36.492Z,9.23
2023-04-26T09:06:06.833Z,8.25
2023-04-26T09:08:38.176Z,11.15
2023-04-26T09:11:05.731Z,7.53
2023-04-26T09:13:33.384Z,10.57
2023-04-26T09:16:03.412Z,9.77
2023-04-26T09:18:33.844Z,10.48
2023-04-26T09:21:05.724Z,10.55
2023-04-26T09:26:21.635Z,8.05
2023-04-26T09:28:50.512Z,8.13
2023-04-26T09:31:46.348Z,8.93
2023-04-26T09:34:16.213Z,7.10
2023-04-26T09:37:01.812Z,7.38
2023-04-26T09:39:40.094Z,8.73
2023-04-26T09:42:09.149Z,6.22
2023-04-26T09:44:38.165Z,7.68
2023-04-26T09:47:12.403Z,7.65
2023-04-26T09:49:48.849Z,9.68
2023-04-26T09:52:18.772Z,10.35
2023-04-26T09:54:53.171Z,7.85
2023-04-26T09:57:23.459Z,5.38
2023-04-26T09:59:55.329Z,8.18
2023-04-26T10:02:27.177Z,7.07
2023-04-26T10:07:26.465Z,7.20
2023-04-26T10:09:55.709Z,8.82
2023-04-26T10:12:23.539Z,7.63
2023-04-26T10:14:51.077Z,7.40
2023-04-26T10:17:21.027Z,8.55
2023-04-26T10:19:57.731Z,9.55
2023-04-26T10:22:33.906Z,12.48
2023-04-26T10:25:01.616Z,9.18
2023-04-26T10:27:49.017Z,6.68
2023-04-26T10:30:20.190Z,8.18
2023-04-26T10:33:13.886Z,9.98
2023-04-26T10:36:09.817Z,9.20
2023-04-26T10:39:16.308Z,7.05
2023-04-26T10:41:44.047Z,8.52
2023-04-26T10:44:42.306Z,12.25
2023-04-26T10:47:25.105Z,9.23
2023-04-26T10:50:09.503Z,9.75
2023-04-26T10:52:59.360Z,7.88
2023-04-26T10:55:43.340Z,10.65
2023-04-26T10:58:34.653Z,10.43
2023-04-26T11:01:11.751Z,10.93
2023-04-26T11:04:01.641Z,7.88
2023-04-26T11:06:57.846Z,7.72
2023-04-26T11:09:36.908Z,7.10
2023-04-26T11:12:06.453Z,8.35
2023-04-26T11:14:35.487Z,7.18
2023-04-26T11:17:08.272Z,6.35
2023-04-26T11:19:36.490Z,9.05
2023-04-26T11:22:07.830Z,9.50
2023-04-26T11:24:39.209Z,9.00
2023-04-26T11:27:11.754Z,8.75
2023-04-26T11:29:39.549Z,7.22
2023-04-26T11:32:08.515Z,10.18
2023-04-26T11:34:39.150Z,8.25
2023-04-26T11:37:07.952Z,8.73
2023-04-26T11:39:37.767Z,8.55
2023-04-26T11:42:10.762Z,9.07
2023-04-26T11:44:41.027Z,9.93
2023-04-26T11:47:10.058Z,8.70
2023-04-26T11:49:38.681Z,10.25
2023-04-26T11:52:08.145Z,8.65
2023-04-26T11:54:40.562Z,8.65
2023-04-26T11:57:17.457Z,6.78
2023-04-26T11:59:46.008Z,10.10
2023-04-26T12:02:23.711Z,8.77
2023-04-26T12:04:59.173Z,10.00
2023-04-26T12:07:27.219Z,7.68
2023-04-26T12:09:54.716Z,7.70
2023-04-26T12:12:24.472Z,6.03
2023-04-26T12:14:52.061Z,5.75
2023-04-26T12:17:19.745Z,9.23
2023-04-26T12:19:50.351Z,5.80
2023-04-26T12:22:24.112Z,8.48
2023-04-26T12:25:06.371Z,8.90
2023-04-26T12:27:34.078Z,8.55
2023-04-26T12:30:01.701Z,7.60
2023-04-26T12:32:29.316Z,7.38
2023-04-26T12:34:56.942Z,7.15
2023-04-26T12:37:24.516Z,8.85
2023-04-26T12:39:52.175Z,10.50
2023-04-26T12:42:19.743Z,8.07
2023-04-26T12:44:47.301Z,8.73
2023-04-26T12:47:14.923Z,9.68
2023-04-26T12:49:42.499Z,8.48
2023-04-26T12:52:10.009Z,7.90
2023-04-26T12:54:37.564Z,12.48
2023-04-26T12:57:06.106Z,9.18
2023-04-26T12:59:33.652Z,8.73
2023-04-26T13:02:01.402Z,9.10
2023-04-26T13:04:29.185Z,10.55
2023-04-26T13:06:57.480Z,8.40
2023-04-26T13:09:25.010Z,8.73
2023-04-26T13:11:52.551Z,8.05
2023-04-26T13:14:20.468Z,9.80
2023-04-26T13:16:48.094Z,7.70
2023-04-26T13:19:16.014Z,12.23
2023-04-26T13:21:43.581Z,9.45
2023-04-26T13:24:11.253Z,8.18
2023-04-26T13:26:38.868Z,10.07
2023-04-26T13:29:06.636Z,11.43
2023-04-26T13:31:34.249Z,10.85
2023-04-26T13:34:03.871Z,9.65
2023-04-26T13:36:32.593Z,11.52
2023-04-26T13:39:00.168Z,9.13
2023-04-26T13:41:33.257Z,10.75
2023-04-26T13:44:04.908Z,8.50
2023-04-26T13:48:59.992Z,10.13
2023-04-26T13:51:30.472Z,8.23
2023-04-26T13:53:58.771Z,8.48
2023-04-26T13:56:26.444Z,9.68
2023-04-26T13:58:57.118Z,10.73
2023-04-26T14:01:24.737Z,11.18
2023-04-26T14:03:55.036Z,9.40
2023-04-26T14:06:23.880Z,7.28
2023-04-26T14:08:51.800Z,9.90
2023-04-26T14:11:19.343Z,9.65
2023-04-26T14:13:46.975Z,10.18
2023-04-26T14:16:14.696Z,10.00
2023-04-26T14:18:45.312Z,10.23
2023-04-26T14:21:13.231Z,8.95
2023-04-26T14:23:40.886Z,9.27
2023-04-26T14:26:08.614Z,9.90
2023-04-26T14:28:36.525Z,12.45
2023-04-26T14:31:04.160Z,9.52
2023-04-26T14:33:31.770Z,8.70
2023-04-26T14:35:59.397Z,8.95
2023-04-26T14:38:27.017Z,8.82
2023-04-26T14:40:54.600Z,7.20
2023-04-26T14:43:22.228Z,9.82
2023-04-26T14:45:49.903Z,9.63
2023-04-26T14:48:17.940Z,10.77
2023-04-26T14:50:45.767Z,9.40
2023-04-26T14:53:13.352Z,9.35
2023-04-26T14:55:40.980Z,11.80
2023-04-26T14:58:08.558Z,8.32
2023-04-26T15:00:36.192Z,9.57
2023-04-26T15:03:04.607Z,11.27
2023-04-26T15:05:32.564Z,9.35
2023-04-26T15:08:00.230Z,8.13
2023-04-26T15:10:28.078Z,8.35
2023-04-26T15:12:56.313Z,9.63
2023-04-26T15:15:24.399Z,9.68
2023-04-26T15:17:52.155Z,8.45
2023-04-26T15:20:19.838Z,8.88
2023-04-26T15:22:47.463Z,8.82
2023-04-26T15:25:15.245Z,8.88
2023-04-26T15:27:42.904Z,7.43
2023-04-26T15:30:10.855Z,8.98
2023-04-26T15:32:38.646Z,8.68
2023-04-26T15:35:07.425Z,9.48
2023-04-26T15:37:37.860Z,7.78
2023-04-26T15:40:06.575Z,8.23
2023-04-26T15:42:34.188Z,8.73
2023-04-26T15:45:02.557Z,8.15
2023-04-26T15:47:30.105Z,9.82
2023-04-26T15:50:03.706Z,9.85
2023-04-26T15:52:37.912Z,9.90
2023-04-26T15:55:07.694Z,10.30
2023-04-26T15:57:35.666Z,8.38
2023-04-26T16:00:05.862Z,9.18
2023-04-26T16:02:35.306Z,17.23
2023-04-26T16:05:04.276Z,8.40
2023-04-26T16:07:32.110Z,10.02
2023-04-26T16:09:59.648Z,11.43
2023-04-26T16:12:27.258Z,9.02
2023-04-26T16:14:54.800Z,7.82
2023-04-26T16:17:22.577Z,7.88
2023-04-26T16:19:50.141Z,8.02
2023-04-26T16:22:17.659Z,9.73
2023-04-26T16:24:45.737Z,10.77
2023-04-26T16:27:13.338Z,9.07
2023-04-26T16:29:40.853Z,8.90
2023-04-26T16:32:08.458Z,12.07
2023-04-26T16:34:36.055Z,8.90
2023-04-26T16:37:03.804Z,8.45
2023-04-26T16:39:31.964Z,10.13
2023-04-26T16:41:59.565Z,16.92
2023-04-26T16:44:27.199Z,9.70
2023-04-26T16:46:54.819Z,9.63
2023-04-26T16:49:22.504Z,8.27
2023-04-26T16:51:56.321Z,7.68
2023-04-26T16:54:24.392Z,7.78
2023-04-26T16:56:52.081Z,9.68
2023-04-26T16:59:22.583Z,10.30
2023-04-26T17:01:50.767Z,7.68
2023-04-26T17:04:18.939Z,8.77
2023-04-26T17:06:46.608Z,8.55
2023-04-26T17:09:14.819Z,10.02
2023-04-26T17:11:43.581Z,9.88
2023-04-26T17:14:11.210Z,8.13
2023-04-26T17:16:39.049Z,9.38
2023-04-26T17:19:06.838Z,7.95
2023-04-26T17:21:34.607Z,10.07
2023-04-26T17:24:02.261Z,10.23
2023-04-26T17:26:30.499Z,8.90
2023-04-26T17:28:58.154Z,6.65
2023-04-26T17:31:25.926Z,7.75
2023-04-26T17:33:53.693Z,10.63
2023-04-26T17:36:22.615Z,11.52
2023-04-26T17:38:50.232Z,7.93
2023-04-26T17:41:18.027Z,7.05
2023-04-26T17:43:45.705Z,7.63
2023-04-26T17:46:14.148Z,11.32
2023-04-26T17:48:41.696Z,6.63
2023-04-26T17:51:09.546Z,9.23
2023-04-26T17:53:37.237Z,8.52
2023-04-26T17:56:07.578Z,9.05
2023-04-26T17:58:35.146Z,7.63
2023-04-26T18:01:04.098Z,10.32
2023-04-26T18:03:32.137Z,9.77
2023-04-26T18:05:59.914Z,9.57
2023-04-26T18:08:27.660Z,9.60
2023-04-26T18:10:55.726Z,6.47
2023-04-26T18:13:23.578Z,8.38
2023-04-26T18:15:51.414Z,8.43
2023-04-26T18:18:18.998Z,9.45
2023-04-26T18:20:46.583Z,7.78
2023-04-26T18:23:14.253Z,8.30
2023-04-26T18:25:42.354Z,7.88
2023-04-26T18:28:10.592Z,6.95
2023-04-26T18:30:38.291Z,6.93
2023-04-26T18:33:06.339Z,8.50
2023-04-26T18:35:33.888Z,7.45
2023-04-26T18:38:01.446Z,11.48
2023-04-26T18:40:29.038Z,13.25
2023-04-26T18:43:00.427Z,14.13
2023-04-26T18:46:31.526Z,12.15
2023-04-26T18:48:16.692Z,12.85
2023-04-26T18:51:00.020Z,15.18
2023-04-26T18:53:30.489Z,13.18
2023-04-26T18:56:00.479Z,12.40
2023-04-26T18:58:29.165Z,17.95
2023-04-26T19:01:14.947Z,17.77
2023-04-26T19:03:43.515Z,14.10
2023-04-26T19:06:16.628Z,11.68
2023-04-26T19:08:45.360Z,11.98
2023-04-26T19:11:13.726Z,12.98
2023-04-26T19:13:41.608Z,11.93
2023-04-26T19:16:10.389Z,8.27
2023-04-26T19:18:40.489Z,11.40
2023-04-26T19:21:09.811Z,12.00
2023-04-26T19:23:38.645Z,10.75
2023-04-26T19:26:14.448Z,10.07
2023-04-26T19:28:42.282Z,11.45
2023-04-26T19:31:09.887Z,11.77
2023-04-26T19:33:38.374Z,11.25
2023-04-26T19:36:06.470Z,10.00
2023-04-26T19:38:34.075Z,11.55
2023-04-26T19:41:02.043Z,9.52
2023-04-26T19:43:30.402Z,10.70
2023-04-26T19:46:00.521Z,10.63
2023-04-26T19:48:28.199Z,11.32
2023-04-26T19:50:55.874Z,10.48
2023-04-26T19:53:23.414Z,9.65
2023-04-26T19:55:51.095Z,10.50
2023-04-26T19:58:18.677Z,11.23
2023-04-26T20:00:47.590Z,11.95
2023-04-26T20:03:15.450Z,9.95
2023-04-26T20:05:43.094Z,11.45
2023-04-26T20:08:16.129Z,9.07
2023-04-26T20:10:44.448Z,10.73
2023-04-26T20:13:18.789Z,10.23
2023-04-26T20:15:46.365Z,13.50
2023-04-26T20:18:13.957Z,11.77
2023-04-26T20:20:41.481Z,11.35
2023-04-26T20:23:09.049Z,11.88
2023-04-26T20:25:36.894Z,11.77
2023-04-26T20:28:04.775Z,10.55
2023-04-26T20:30:33.793Z,12.93
2023-04-26T20:33:01.971Z,14.55
2023-04-26T20:35:31.868Z,11.57
2023-04-26T20:37:59.458Z,12.43
2023-04-26T20:40:27.481Z,12.93
2023-04-26T20:42:55.018Z,11.52
2023-04-26T20:45:22.810Z,10.32
2023-04-26T20:47:50.452Z,12.90
2023-04-26T20:50:18.220Z,11.52
2023-04-26T20:52:47.103Z,13.07
2023-04-26T20:55:14.734Z,14.43
2023-04-26T20:57:42.452Z,9.27
2023-04-26T21:00:10.626Z,12.43
2023-04-26T21:02:38.468Z,12.45
2023-04-26T21:05:06.635Z,12.13
2023-04-26T21:07:34.164Z,9.20
2023-04-26T21:10:03.207Z,12.00
2023-04-26T21:12:30.877Z,14.18
2023-04-26T21:14:58.623Z,11.48
2023-04-26T21:17:26.358Z,12.93
2023-04-26T21:19:53.868Z,10.75
2023-04-26T21:22:21.914Z,10.57
2023-04-26T21:24:52.109Z,12.02
2023-04-26T21:27:20.728Z,11.88
2023-04-26T21:29:48.271Z,12.70
2023-04-26T21:32:18.328Z,11.18
2023-04-26T21:34:46.088Z,10.35
2023-04-26T21:37:13.661Z,10.82
2023-04-26T21:39:41.210Z,10.48
2023-04-26T21:42:08.719Z,18.45
2023-04-26T21:44:36.379Z,13.82
2023-04-26T21:47:03.924Z,13.40
2023-04-26T21:49:31.544Z,11.10
2023-04-26T21:51:59.029Z,12.50
2023-04-26T21:54:26.554Z,12.65
2023-04-26T21:56:54.173Z,13.63
2023-04-26T21:59:21.678Z,14.85
2023-04-26T22:01:49.266Z,13.77
2023-04-26T22:04:17.061Z,10.63
2023-04-26T22:06:44.625Z,15.27
2023-04-26T22:09:12.460Z,12.02
2023-04-26T22:11:40.228Z,11.80
2023-04-26T22:14:07.917Z,13.68
2023-04-26T22:16:35.719Z,12.43
2023-04-26T22:19:03.426Z,11.55
2023-04-26T22:21:32.069Z,12.02
2023-04-26T22:24:00.194Z,12.35
2023-04-26T22:26:27.746Z,11.55
2023-04-26T22:28:55.273Z,13.80
2023-04-26T22:31:23.001Z,11.77
2023-04-26T22:33:50.577Z,11.65
2023-04-26T22:36:18.148Z,16.10
2023-04-26T22:38:45.639Z,15.57
2023-04-26T22:41:13.181Z,13.82
2023-04-26T22:43:41.610Z,11.82
2023-04-26T22:46:09.257Z,16.52
2023-04-26T22:48:36.842Z,11.70
2023-04-26T22:51:04.533Z,11.98
2023-04-26T22:53:32.048Z,10.85
2023-04-26T22:55:59.637Z,12.43
2023-04-26T22:58:27.176Z,13.57
2023-04-26T23:00:54.868Z,14.45
2023-04-26T23:03:22.618Z,10.82
2023-04-26T23:05:50.216Z,11.65
2023-04-26T23:08:17.721Z,12.18
2023-04-26T23:10:45.364Z,9.68
2023-04-26T23:13:14.567Z,10.88
2023-04-26T23:15:42.061Z,12.50
2023-04-26T23:18:09.587Z,8.75
2023-04-26T23:20:37.147Z,10.73
2023-04-26T23:23:05.002Z,10.85
2023-04-26T23:25:32.595Z,9.98
2023-04-26T23:28:00.169Z,9.55
2023-04-26T23:30:27.682Z,12.90
2023-04-26T23:32:55.209Z,10.43
2023-04-26T23:35:22.740Z,9.45
2023-04-26T23:37:52.480Z,10.57
2023-04-26T23:40:20.154Z,10.20
2023-04-26T23:42:47.692Z,9.10
2023-04-26T23:45:15.962Z,10.68
2023-04-26T23:47:43.483Z,10.27
2023-04-26T23:50:11.772Z,11.35
2023-04-26T23:52:39.303Z,10.20
2023-04-26T23:55:08.022Z,10.20
2023-04-26T23:57:35.670Z,9.73
